sensor_id;sensor_type;location;lat;lon;timestamp;pressure;altitude;pressure_sealevel;temperature;humidity
10946;BME280;5525;42.648;23.368;2022-09-03T00:00:54;94658.50;;;16.51;100.00
10946;BME280;5525;42.648;23.368;2022-09-03T00:03:28;94624.22;;;16.31;100.00
10946;BME280;5525;42.648;23.368;2022-09-03T00:06:08;94666.28;;;16.49;100.00
10946;BME280;5525;42.648;23.368;2022-09-03T00:08:41;94676.22;;;16.61;100.00
10946;BME280;5525;42.648;23.368;2022-09-03T00:11:13;94660.09;;;16.52;100.00
10946;BME280;5525;42.648;23.368;2022-09-03T00:13:45;94671.75;;;16.53;100.00
10946;BME280;5525;42.648;23.368;2022-09-03T00:16:16;94652.81;;;16.41;100.00
10946;BME280;5525;42.648;23.368;2022-09-03T00:18:50;94671.28;;;16.47;100.00
10946;BME280;5525;42.648;23.368;2022-09-03T00:21:25;94653.50;;;16.34;100.00
10946;BME280;5525;42.648;23.368;2022-09-03T00:23:55;94660.22;;;16.40;100.00
10946;BME280;5525;42.648;23.368;2022-09-03T00:26:26;94649.25;;;16.37;100.00
10946;BME280;5525;42.648;23.368;2022-09-03T00:28:58;94661.44;;;16.43;100.00
10946;BME280;5525;42.648;23.368;2022-09-03T00:31:31;94651.00;;;16.45;100.00
10946;BME280;5525;42.648;23.368;2022-09-03T00:34:06;94670.75;;;16.61;100.00
10946;BME280;5525;42.648;23.368;2022-09-03T00:36:38;94667.03;;;16.50;100.00
10946;BME280;5525;42.648;23.368;2022-09-03T00:39:09;94660.50;;;16.35;100.00
10946;BME280;5525;42.648;23.368;2022-09-03T00:41:38;94642.50;;;16.31;100.00
10946;BME280;5525;42.648;23.368;2022-09-03T00:44:36;94661.59;;;16.50;100.00
10946;BME280;5525;42.648;23.368;2022-09-03T00:47:16;94671.28;;;16.47;100.00
10946;BME280;5525;42.648;23.368;2022-09-03T00:49:57;94651.63;;;16.38;100.00
10946;BME280;5525;42.648;23.368;2022-09-03T00:52:39;94672.44;;;16.46;100.00
10946;BME280;5525;42.648;23.368;2022-09-03T00:55:15;94664.69;;;16.48;100.00
10946;BME280;5525;42.648;23.368;2022-09-03T00:57:57;94675.94;;;16.47;100.00
10946;BME280;5525;42.648;23.368;2022-09-03T01:00:29;94676.13;;;16.38;100.00
10946;BME280;5525;42.648;23.368;2022-09-03T01:03:03;94662.78;;;16.33;100.00
10946;BME280;5525;42.648;23.368;2022-09-03T01:05:51;94665.31;;;16.42;100.00
10946;BME280;5525;42.648;23.368;2022-09-03T01:08:33;94648.25;;;16.26;100.00
10946;BME280;5525;42.648;23.368;2022-09-03T01:11:10;94657.78;;;16.35;100.00
10946;BME280;5525;42.648;23.368;2022-09-03T01:13:46;94661.00;;;16.41;100.00
10946;BME280;5525;42.648;23.368;2022-09-03T01:16:21;94671.00;;;16.52;100.00
10946;BME280;5525;42.648;23.368;2022-09-03T01:19:00;94658.03;;;16.46;100.00
10946;BME280;5525;42.648;23.368;2022-09-03T01:21:44;94672.00;;;16.44;100.00
10946;BME280;5525;42.648;23.368;2022-09-03T01:24:38;94673.34;;;16.35;100.00
10946;BME280;5525;42.648;23.368;2022-09-03T01:27:20;94673.63;;;16.30;100.00
10946;BME280;5525;42.648;23.368;2022-09-03T01:29:56;94638.88;;;16.04;100.00
10946;BME280;5525;42.648;23.368;2022-09-03T01:32:33;94634.34;;;15.93;100.00
10946;BME280;5525;42.648;23.368;2022-09-03T01:35:09;94660.16;;;15.99;100.00
10946;BME280;5525;42.648;23.368;2022-09-03T01:37:52;94631.59;;;15.74;100.00
10946;BME280;5525;42.648;23.368;2022-09-03T01:40:29;94702.25;;;16.20;100.00
10946;BME280;5525;42.648;23.368;2022-09-03T01:43:09;94688.31;;;16.06;100.00
10946;BME280;5525;42.648;23.368;2022-09-03T01:45:48;94684.59;;;15.95;100.00
10946;BME280;5525;42.648;23.368;2022-09-03T01:48:43;94664.66;;;15.91;100.00
10946;BME280;5525;42.648;23.368;2022-09-03T01:51:18;94696.72;;;16.17;100.00
10946;BME280;5525;42.648;23.368;2022-09-03T01:54:14;94666.31;;;15.96;100.00
10946;BME280;5525;42.648;23.368;2022-09-03T01:57:00;94681.16;;;16.17;100.00
10946;BME280;5525;42.648;23.368;2022-09-03T01:59:32;94683.47;;;16.15;100.00
10946;BME280;5525;42.648;23.368;2022-09-03T02:02:06;94678.72;;;16.12;100.00
10946;BME280;5525;42.648;23.368;2022-09-03T02:04:34;94685.91;;;16.20;100.00
10946;BME280;5525;42.648;23.368;2022-09-03T02:07:02;94623.09;;;15.75;100.00
10946;BME280;5525;42.648;23.368;2022-09-03T02:09:29;94615.28;;;15.74;100.00
10946;BME280;5525;42.648;23.368;2022-09-03T02:12:04;94656.84;;;16.09;100.00
10946;BME280;5525;42.648;23.368;2022-09-03T02:14:34;94686.84;;;16.28;100.00
10946;BME280;5525;42.648;23.368;2022-09-03T02:17:03;94691.00;;;16.22;100.00
10946;BME280;5525;42.648;23.368;2022-09-03T02:19:31;94696.81;;;16.20;100.00
10946;BME280;5525;42.648;23.368;2022-09-03T02:21:58;94705.38;;;16.22;100.00
10946;BME280;5525;42.648;23.368;2022-09-03T02:24:27;94695.16;;;16.16;100.00
10946;BME280;5525;42.648;23.368;2022-09-03T02:26:55;94692.00;;;16.14;100.00
10946;BME280;5525;42.648;23.368;2022-09-03T02:29:22;94659.06;;;15.84;100.00
10946;BME280;5525;42.648;23.368;2022-09-03T02:31:50;94675.22;;;15.93;100.00
10946;BME280;5525;42.648;23.368;2022-09-03T02:34:18;94696.50;;;16.06;100.00
10946;BME280;5525;42.648;23.368;2022-09-03T02:36:46;94694.28;;;16.12;100.00
10946;BME280;5525;42.648;23.368;2022-09-03T02:39:14;94697.88;;;16.16;100.00
10946;BME280;5525;42.648;23.368;2022-09-03T02:41:42;94666.25;;;15.92;100.00
10946;BME280;5525;42.648;23.368;2022-09-03T02:44:12;94640.06;;;15.69;100.00
10946;BME280;5525;42.648;23.368;2022-09-03T02:46:43;94693.25;;;16.01;100.00
10946;BME280;5525;42.648;23.368;2022-09-03T02:49:11;94690.75;;;15.92;100.00
10946;BME280;5525;42.648;23.368;2022-09-03T02:51:42;94687.41;;;15.99;100.00
10946;BME280;5525;42.648;23.368;2022-09-03T02:54:09;94706.59;;;16.06;100.00
10946;BME280;5525;42.648;23.368;2022-09-03T02:56:37;94714.63;;;16.18;100.00
10946;BME280;5525;42.648;23.368;2022-09-03T02:59:05;94700.97;;;16.14;100.00
10946;BME280;5525;42.648;23.368;2022-09-03T03:01:33;94685.94;;;15.86;100.00
10946;BME280;5525;42.648;23.368;2022-09-03T03:04:01;94660.63;;;15.66;100.00
10946;BME280;5525;42.648;23.368;2022-09-03T03:06:28;94712.41;;;16.04;100.00
10946;BME280;5525;42.648;23.368;2022-09-03T03:08:56;94683.72;;;15.91;100.00
10946;BME280;5525;42.648;23.368;2022-09-03T03:11:24;94702.13;;;15.98;100.00
10946;BME280;5525;42.648;23.368;2022-09-03T03:13:51;94711.59;;;16.04;100.00
10946;BME280;5525;42.648;23.368;2022-09-03T03:16:18;94709.59;;;16.01;100.00
10946;BME280;5525;42.648;23.368;2022-09-03T03:18:45;94679.75;;;15.70;100.00
10946;BME280;5525;42.648;23.368;2022-09-03T03:21:14;94711.47;;;15.97;100.00
10946;BME280;5525;42.648;23.368;2022-09-03T03:23:41;94688.56;;;15.82;100.00
10946;BME280;5525;42.648;23.368;2022-09-03T03:26:12;94705.66;;;15.98;100.00
10946;BME280;5525;42.648;23.368;2022-09-03T03:28:39;94702.50;;;15.96;100.00
10946;BME280;5525;42.648;23.368;2022-09-03T03:31:07;94659.91;;;15.69;100.00
10946;BME280;5525;42.648;23.368;2022-09-03T03:33:35;94667.34;;;15.72;100.00
10946;BME280;5525;42.648;23.368;2022-09-03T03:36:05;94714.47;;;15.92;100.00
10946;BME280;5525;42.648;23.368;2022-09-03T03:38:32;94713.91;;;16.02;100.00
10946;BME280;5525;42.648;23.368;2022-09-03T03:41:06;94714.09;;;15.93;100.00
10946;BME280;5525;42.648;23.368;2022-09-03T03:43:34;94665.13;;;15.59;100.00
10946;BME280;5525;42.648;23.368;2022-09-03T03:46:01;94713.03;;;15.98;100.00
10946;BME280;5525;42.648;23.368;2022-09-03T03:48:29;94711.91;;;15.99;100.00
10946;BME280;5525;42.648;23.368;2022-09-03T03:50:59;94662.09;;;15.64;100.00
10946;BME280;5525;42.648;23.368;2022-09-03T03:53:27;94696.81;;;15.86;100.00
10946;BME280;5525;42.648;23.368;2022-09-03T03:55:55;94707.41;;;16.06;100.00
10946;BME280;5525;42.648;23.368;2022-09-03T03:58:23;94699.13;;;16.03;100.00
10946;BME280;5525;42.648;23.368;2022-09-03T04:00:51;94715.72;;;16.13;100.00
10946;BME280;5525;42.648;23.368;2022-09-03T04:03:18;94719.00;;;16.03;100.00
10946;BME280;5525;42.648;23.368;2022-09-03T04:05:54;94709.59;;;16.01;100.00
10946;BME280;5525;42.648;23.368;2022-09-03T04:08:21;94660.69;;;15.70;100.00
10946;BME280;5525;42.648;23.368;2022-09-03T04:10:48;94715.03;;;16.01;100.00
10946;BME280;5525;42.648;23.368;2022-09-03T04:13:15;94682.00;;;15.83;100.00
10946;BME280;5525;42.648;23.368;2022-09-03T04:15:41;94704.28;;;15.89;100.00
10946;BME280;5525;42.648;23.368;2022-09-03T04:18:10;94681.56;;;15.81;100.00
10946;BME280;5525;42.648;23.368;2022-09-03T04:20:37;94718.69;;;15.89;100.00
10946;BME280;5525;42.648;23.368;2022-09-03T04:23:04;94686.59;;;15.64;100.00
10946;BME280;5525;42.648;23.368;2022-09-03T04:25:31;94724.22;;;15.93;100.00
10946;BME280;5525;42.648;23.368;2022-09-03T04:27:58;94716.69;;;15.86;100.00
10946;BME280;5525;42.648;23.368;2022-09-03T04:30:25;94704.44;;;15.96;100.00
10946;BME280;5525;42.648;23.368;2022-09-03T04:32:52;94731.16;;;15.90;100.00
10946;BME280;5525;42.648;23.368;2022-09-03T04:35:23;94720.44;;;15.97;100.00
10946;BME280;5525;42.648;23.368;2022-09-03T04:37:50;94728.47;;;16.09;100.00
10946;BME280;5525;42.648;23.368;2022-09-03T04:40:19;94714.94;;;16.13;100.00
10946;BME280;5525;42.648;23.368;2022-09-03T04:42:46;94687.78;;;15.82;100.00
10946;BME280;5525;42.648;23.368;2022-09-03T04:45:13;94746.84;;;16.31;100.00
10946;BME280;5525;42.648;23.368;2022-09-03T04:47:43;94755.44;;;16.33;100.00
10946;BME280;5525;42.648;23.368;2022-09-03T04:50:11;94746.16;;;16.34;100.00
10946;BME280;5525;42.648;23.368;2022-09-03T04:52:39;94756.56;;;16.48;100.00
10946;BME280;5525;42.648;23.368;2022-09-03T04:55:07;94759.09;;;16.41;100.00
10946;BME280;5525;42.648;23.368;2022-09-03T04:57:35;94761.22;;;16.47;100.00
10946;BME280;5525;42.648;23.368;2022-09-03T05:00:04;94764.41;;;16.49;100.00
10946;BME280;5525;42.648;23.368;2022-09-03T05:02:32;94763.81;;;16.59;100.00
10946;BME280;5525;42.648;23.368;2022-09-03T05:04:58;94714.06;;;16.09;100.00
10946;BME280;5525;42.648;23.368;2022-09-03T05:07:25;94775.31;;;16.49;100.00
10946;BME280;5525;42.648;23.368;2022-09-03T05:09:55;94772.50;;;16.46;100.00
10946;BME280;5525;42.648;23.368;2022-09-03T05:12:22;94773.81;;;16.36;100.00
10946;BME280;5525;42.648;23.368;2022-09-03T05:14:49;94776.38;;;16.45;100.00
10946;BME280;5525;42.648;23.368;2022-09-03T05:17:16;94779.25;;;16.36;100.00
10946;BME280;5525;42.648;23.368;2022-09-03T05:19:43;94725.53;;;16.18;100.00
10946;BME280;5525;42.648;23.368;2022-09-03T05:22:10;94774.50;;;16.49;100.00
10946;BME280;5525;42.648;23.368;2022-09-03T05:24:36;94779.09;;;16.64;100.00
10946;BME280;5525;42.648;23.368;2022-09-03T05:27:05;94774.78;;;16.63;100.00
10946;BME280;5525;42.648;23.368;2022-09-03T05:29:32;94738.69;;;16.50;100.00
10946;BME280;5525;42.648;23.368;2022-09-03T05:31:59;94762.09;;;16.70;100.00
10946;BME280;5525;42.648;23.368;2022-09-03T05:34:29;94754.06;;;16.58;100.00
10946;BME280;5525;42.648;23.368;2022-09-03T05:36:57;94755.06;;;16.50;100.00
10946;BME280;5525;42.648;23.368;2022-09-03T05:39:23;94749.50;;;16.28;100.00
10946;BME280;5525;42.648;23.368;2022-09-03T05:41:50;94779.88;;;16.64;100.00
10946;BME280;5525;42.648;23.368;2022-09-03T05:44:19;94775.50;;;16.79;100.00
10946;BME280;5525;42.648;23.368;2022-09-03T05:46:47;94782.47;;;16.96;100.00
10946;BME280;5525;42.648;23.368;2022-09-03T05:49:14;94774.72;;;16.78;100.00
10946;BME280;5525;42.648;23.368;2022-09-03T05:51:41;94773.84;;;16.94;100.00
10946;BME280;5525;42.648;23.368;2022-09-03T05:54:09;94782.03;;;16.94;100.00
10946;BME280;5525;42.648;23.368;2022-09-03T05:56:37;94780.47;;;16.93;100.00
10946;BME280;5525;42.648;23.368;2022-09-03T05:59:07;94788.28;;;16.94;100.00
10946;BME280;5525;42.648;23.368;2022-09-03T06:01:37;94784.31;;;16.92;100.00
10946;BME280;5525;42.648;23.368;2022-09-03T06:04:06;94759.00;;;16.72;100.00
10946;BME280;5525;42.648;23.368;2022-09-03T06:06:35;94790.19;;;17.13;100.00
10946;BME280;5525;42.648;23.368;2022-09-03T06:09:04;94768.50;;;17.01;100.00
10946;BME280;5525;42.648;23.368;2022-09-03T06:11:35;94798.59;;;17.68;100.00
10946;BME280;5525;42.648;23.368;2022-09-03T06:14:04;94765.91;;;17.49;100.00
10946;BME280;5525;42.648;23.368;2022-09-03T06:16:36;94802.97;;;17.73;100.00
10946;BME280;5525;42.648;23.368;2022-09-03T06:19:04;94801.28;;;17.65;100.00
10946;BME280;5525;42.648;23.368;2022-09-03T06:21:35;94794.59;;;17.62;100.00
10946;BME280;5525;42.648;23.368;2022-09-03T06:24:02;94794.97;;;17.61;100.00
10946;BME280;5525;42.648;23.368;2022-09-03T06:26:29;94798.22;;;17.92;100.00
10946;BME280;5525;42.648;23.368;2022-09-03T06:28:56;94787.25;;;17.89;100.00
10946;BME280;5525;42.648;23.368;2022-09-03T06:31:24;94799.75;;;17.90;100.00
10946;BME280;5525;42.648;23.368;2022-09-03T06:33:53;94804.00;;;18.13;100.00
10946;BME280;5525;42.648;23.368;2022-09-03T06:36:22;94812.00;;;18.48;100.00
10946;BME280;5525;42.648;23.368;2022-09-03T06:38:52;94817.72;;;18.69;100.00
10946;BME280;5525;42.648;23.368;2022-09-03T06:41:21;94806.91;;;19.13;100.00
10946;BME280;5525;42.648;23.368;2022-09-03T06:43:50;94769.25;;;19.36;100.00
10946;BME280;5525;42.648;23.368;2022-09-03T06:46:20;94776.16;;;19.59;100.00
10946;BME280;5525;42.648;23.368;2022-09-03T06:48:48;94800.16;;;20.85;100.00
10946;BME280;5525;42.648;23.368;2022-09-03T06:51:20;94790.47;;;21.01;99.97
10946;BME280;5525;42.648;23.368;2022-09-03T06:53:49;94795.94;;;21.01;100.00
10946;BME280;5525;42.648;23.368;2022-09-03T06:56:19;94812.16;;;20.56;100.00
10946;BME280;5525;42.648;23.368;2022-09-03T06:58:48;94814.34;;;20.29;100.00
10946;BME280;5525;42.648;23.368;2022-09-03T07:01:16;94818.69;;;20.34;100.00
10946;BME280;5525;42.648;23.368;2022-09-03T07:03:44;94787.09;;;20.06;100.00
10946;BME280;5525;42.648;23.368;2022-09-03T07:06:13;94814.66;;;20.17;100.00
10946;BME280;5525;42.648;23.368;2022-09-03T07:08:43;94798.19;;;19.73;100.00
10946;BME280;5525;42.648;23.368;2022-09-03T07:11:12;94805.09;;;20.04;100.00
10946;BME280;5525;42.648;23.368;2022-09-03T07:13:40;94812.47;;;20.44;100.00
10946;BME280;5525;42.648;23.368;2022-09-03T07:16:09;94774.16;;;19.56;100.00
10946;BME280;5525;42.648;23.368;2022-09-03T07:18:37;94824.94;;;19.87;100.00
10946;BME280;5525;42.648;23.368;2022-09-03T07:21:06;94823.94;;;19.65;100.00
10946;BME280;5525;42.648;23.368;2022-09-03T07:23:34;94818.53;;;20.16;100.00
10946;BME280;5525;42.648;23.368;2022-09-03T07:26:05;94816.41;;;20.46;100.00
10946;BME280;5525;42.648;23.368;2022-09-03T07:28:36;94809.47;;;20.12;100.00
10946;BME280;5525;42.648;23.368;2022-09-03T07:31:05;94835.78;;;20.17;100.00
10946;BME280;5525;42.648;23.368;2022-09-03T07:33:32;94830.81;;;20.33;100.00
10946;BME280;5525;42.648;23.368;2022-09-03T07:36:03;94846.72;;;20.67;100.00
10946;BME280;5525;42.648;23.368;2022-09-03T07:38:32;94842.91;;;21.96;93.87
10946;BME280;5525;42.648;23.368;2022-09-03T07:41:00;94844.91;;;21.96;91.58
10946;BME280;5525;42.648;23.368;2022-09-03T07:43:33;94813.06;;;22.16;88.74
10946;BME280;5525;42.648;23.368;2022-09-03T07:46:00;94840.06;;;21.50;90.73
10946;BME280;5525;42.648;23.368;2022-09-03T07:48:27;94850.38;;;21.89;89.17
10946;BME280;5525;42.648;23.368;2022-09-03T07:50:57;94817.16;;;23.36;75.67
10946;BME280;5525;42.648;23.368;2022-09-03T07:53:26;94844.25;;;26.02;58.29
10946;BME280;5525;42.648;23.368;2022-09-03T07:55:54;94831.81;;;24.46;62.25
10946;BME280;5525;42.648;23.368;2022-09-03T07:58:21;94859.84;;;23.83;69.06
10946;BME280;5525;42.648;23.368;2022-09-03T08:00:51;94835.06;;;22.54;76.25
10946;BME280;5525;42.648;23.368;2022-09-03T08:03:20;94813.41;;;21.68;81.08
10946;BME280;5525;42.648;23.368;2022-09-03T08:05:47;94825.63;;;22.59;75.44
10946;BME280;5525;42.648;23.368;2022-09-03T08:08:14;94835.03;;;22.89;73.38
10946;BME280;5525;42.648;23.368;2022-09-03T08:10:42;94848.84;;;22.58;76.21
10946;BME280;5525;42.648;23.368;2022-09-03T08:13:09;94782.03;;;21.77;80.62
10946;BME280;5525;42.648;23.368;2022-09-03T08:15:36;94831.91;;;22.73;75.21
10946;BME280;5525;42.648;23.368;2022-09-03T08:18:06;94860.84;;;23.34;72.70
10946;BME280;5525;42.648;23.368;2022-09-03T08:20:35;94819.66;;;22.95;70.34
10946;BME280;5525;42.648;23.368;2022-09-03T08:23:03;94815.03;;;22.26;75.52
10946;BME280;5525;42.648;23.368;2022-09-03T08:25:30;94840.47;;;25.26;59.44
10946;BME280;5525;42.648;23.368;2022-09-03T08:27:58;94858.22;;;27.14;50.39
10946;BME280;5525;42.648;23.368;2022-09-03T08:30:26;94819.53;;;26.41;51.77
10946;BME280;5525;42.648;23.368;2022-09-03T08:32:54;94864.31;;;26.36;53.00
10946;BME280;5525;42.648;23.368;2022-09-03T08:35:22;94788.09;;;26.75;50.03
10946;BME280;5525;42.648;23.368;2022-09-03T08:37:49;94845.19;;;27.73;47.13
10946;BME280;5525;42.648;23.368;2022-09-03T08:40:19;94860.44;;;28.85;44.40
10946;BME280;5525;42.648;23.368;2022-09-03T08:42:57;94853.09;;;26.70;48.77
10946;BME280;5525;42.648;23.368;2022-09-03T08:45:33;94845.78;;;25.10;54.27
10946;BME280;5525;42.648;23.368;2022-09-03T08:48:04;94827.66;;;26.52;51.71
10946;BME280;5525;42.648;23.368;2022-09-03T08:50:39;94851.22;;;25.84;52.17
10946;BME280;5525;42.648;23.368;2022-09-03T08:53:12;94841.34;;;25.19;54.52
10946;BME280;5525;42.648;23.368;2022-09-03T08:55:48;94847.47;;;24.12;62.69
10946;BME280;5525;42.648;23.368;2022-09-03T08:58:17;94857.97;;;23.66;63.98
10946;BME280;5525;42.648;23.368;2022-09-03T09:00:51;94857.81;;;24.48;60.48
10946;BME280;5525;42.648;23.368;2022-09-03T09:03:33;94821.75;;;24.22;58.94
10946;BME280;5525;42.648;23.368;2022-09-03T09:06:12;94843.13;;;24.11;60.23
10946;BME280;5525;42.648;23.368;2022-09-03T09:08:50;94849.53;;;23.07;69.16
10946;BME280;5525;42.648;23.368;2022-09-03T09:11:31;94813.31;;;23.12;67.02
10946;BME280;5525;42.648;23.368;2022-09-03T09:14:03;94838.75;;;24.17;62.02
10946;BME280;5525;42.648;23.368;2022-09-03T09:16:39;94849.69;;;25.79;54.61
10946;BME280;5525;42.648;23.368;2022-09-03T09:19:20;94814.97;;;25.11;56.91
10946;BME280;5525;42.648;23.368;2022-09-03T09:21:58;94848.81;;;23.79;64.49
10946;BME280;5525;42.648;23.368;2022-09-03T09:24:34;94843.56;;;23.34;68.00
10946;BME280;5525;42.648;23.368;2022-09-03T09:27:04;94800.88;;;22.55;68.59
10946;BME280;5525;42.648;23.368;2022-09-03T09:29:34;94827.56;;;23.80;64.72
10946;BME280;5525;42.648;23.368;2022-09-03T09:32:01;94851.72;;;24.71;60.89
10946;BME280;5525;42.648;23.368;2022-09-03T09:34:33;94816.72;;;24.98;58.01
10946;BME280;5525;42.648;23.368;2022-09-03T09:37:07;94828.31;;;24.86;56.81
10946;BME280;5525;42.648;23.368;2022-09-03T09:39:35;94860.78;;;24.20;61.74
10946;BME280;5525;42.648;23.368;2022-09-03T09:42:06;94822.28;;;24.06;62.49
10946;BME280;5525;42.648;23.368;2022-09-03T09:44:34;94807.63;;;25.35;55.57
10946;BME280;5525;42.648;23.368;2022-09-03T09:47:04;94854.16;;;26.26;53.02
10946;BME280;5525;42.648;23.368;2022-09-03T09:49:34;94859.31;;;26.51;51.81
10946;BME280;5525;42.648;23.368;2022-09-03T09:52:10;94860.91;;;25.69;55.34
10946;BME280;5525;42.648;23.368;2022-09-03T09:54:38;94821.19;;;25.19;54.94
10946;BME280;5525;42.648;23.368;2022-09-03T09:57:07;94859.94;;;25.82;53.50
10946;BME280;5525;42.648;23.368;2022-09-03T09:59:34;94819.19;;;26.13;51.05
10946;BME280;5525;42.648;23.368;2022-09-03T10:02:09;94853.19;;;26.40;51.37
10946;BME280;5525;42.648;23.368;2022-09-03T10:04:38;94833.28;;;27.73;47.69
10946;BME280;5525;42.648;23.368;2022-09-03T10:07:22;94871.63;;;28.33;45.83
10946;BME280;5525;42.648;23.368;2022-09-03T10:10:00;94863.16;;;29.61;42.51
10946;BME280;5525;42.648;23.368;2022-09-03T10:12:31;94870.94;;;28.45;44.28
10946;BME280;5525;42.648;23.368;2022-09-03T10:15:07;94874.13;;;26.91;47.22
10946;BME280;5525;42.648;23.368;2022-09-03T10:17:45;94866.38;;;29.89;41.96
10946;BME280;5525;42.648;23.368;2022-09-03T10:20:18;94860.28;;;34.23;33.21
10946;BME280;5525;42.648;23.368;2022-09-03T10:23:00;94832.59;;;38.75;26.39
10946;BME280;5525;42.648;23.368;2022-09-03T10:25:35;94870.28;;;34.66;30.57
10946;BME280;5525;42.648;23.368;2022-09-03T10:28:06;94862.28;;;32.26;35.17
10946;BME280;5525;42.648;23.368;2022-09-03T10:30:48;94826.13;;;34.43;32.17
10946;BME280;5525;42.648;23.368;2022-09-03T10:33:25;94863.78;;;37.44;28.10
10946;BME280;5525;42.648;23.368;2022-09-03T10:36:02;94871.81;;;35.94;29.65
10946;BME280;5525;42.648;23.368;2022-09-03T10:38:33;94852.84;;;32.72;34.39
10946;BME280;5525;42.648;23.368;2022-09-03T10:41:07;94857.34;;;33.10;32.83
10946;BME280;5525;42.648;23.368;2022-09-03T10:43:55;94808.69;;;33.16;32.93
10946;BME280;5525;42.648;23.368;2022-09-03T10:46:30;94856.09;;;35.49;30.40
10946;BME280;5525;42.648;23.368;2022-09-03T10:49:19;94868.53;;;36.25;29.12
10946;BME280;5525;42.648;23.368;2022-09-03T10:51:54;94865.41;;;35.94;28.82
10946;BME280;5525;42.648;23.368;2022-09-03T10:54:34;94859.63;;;35.12;29.72
10946;BME280;5525;42.648;23.368;2022-09-03T10:57:11;94863.81;;;35.40;29.39
10946;BME280;5525;42.648;23.368;2022-09-03T10:59:55;94853.94;;;33.15;32.07
10946;BME280;5525;42.648;23.368;2022-09-03T11:02:43;94847.00;;;34.42;31.37
10946;BME280;5525;42.648;23.368;2022-09-03T11:05:16;94831.41;;;34.74;30.29
10946;BME280;5525;42.648;23.368;2022-09-03T11:07:49;94832.97;;;33.73;31.22
10946;BME280;5525;42.648;23.368;2022-09-03T11:10:25;94851.00;;;33.27;32.58
10946;BME280;5525;42.648;23.368;2022-09-03T11:13:01;94819.16;;;35.42;29.18
10946;BME280;5525;42.648;23.368;2022-09-03T11:15:32;94847.47;;;34.41;30.28
10946;BME280;5525;42.648;23.368;2022-09-03T11:18:05;94846.59;;;34.16;31.02
10946;BME280;5525;42.648;23.368;2022-09-03T11:20:34;94820.47;;;34.10;30.47
10946;BME280;5525;42.648;23.368;2022-09-03T11:23:03;94792.31;;;33.96;30.91
10946;BME280;5525;42.648;23.368;2022-09-03T11:25:35;94808.72;;;35.19;29.59
10946;BME280;5525;42.648;23.368;2022-09-03T11:28:14;94828.31;;;36.33;27.40
10946;BME280;5525;42.648;23.368;2022-09-03T11:30:51;94842.84;;;34.19;30.12
10946;BME280;5525;42.648;23.368;2022-09-03T11:33:23;94836.06;;;34.53;30.02
10946;BME280;5525;42.648;23.368;2022-09-03T11:35:56;94847.59;;;33.59;30.92
10946;BME280;5525;42.648;23.368;2022-09-03T11:38:26;94843.41;;;33.46;31.02
10946;BME280;5525;42.648;23.368;2022-09-03T11:41:03;94840.06;;;32.53;32.27
10946;BME280;5525;42.648;23.368;2022-09-03T11:43:37;94850.53;;;33.20;31.58
10946;BME280;5525;42.648;23.368;2022-09-03T11:46:07;94825.63;;;32.55;32.29
10946;BME280;5525;42.648;23.368;2022-09-03T11:48:40;94824.91;;;32.02;32.67
10946;BME280;5525;42.648;23.368;2022-09-03T11:51:30;94820.66;;;31.46;34.07
10946;BME280;5525;42.648;23.368;2022-09-03T11:54:02;94832.84;;;31.39;34.71
10946;BME280;5525;42.648;23.368;2022-09-03T11:56:31;94841.75;;;32.20;33.53
10946;BME280;5525;42.648;23.368;2022-09-03T11:59:05;94817.19;;;31.42;34.47
10946;BME280;5525;42.648;23.368;2022-09-03T12:01:43;94785.03;;;30.69;35.73
10946;BME280;5525;42.648;23.368;2022-09-03T12:04:19;94822.16;;;30.03;36.72
10946;BME280;5525;42.648;23.368;2022-09-03T12:07:13;94820.44;;;31.28;35.54
10946;BME280;5525;42.648;23.368;2022-09-03T12:10:06;94818.28;;;30.63;36.10
10946;BME280;5525;42.648;23.368;2022-09-03T12:12:51;94813.28;;;31.05;35.47
10946;BME280;5525;42.648;23.368;2022-09-03T12:15:35;94801.66;;;29.72;38.13
10946;BME280;5525;42.648;23.368;2022-09-03T12:18:09;94824.91;;;29.08;38.68
10946;BME280;5525;42.648;23.368;2022-09-03T12:21:00;94817.09;;;28.23;40.04
10946;BME280;5525;42.648;23.368;2022-09-03T12:23:29;94764.91;;;27.27;41.43
10946;BME280;5525;42.648;23.368;2022-09-03T12:25:58;94804.81;;;27.88;42.33
10946;BME280;5525;42.648;23.368;2022-09-03T12:28:29;94740.09;;;27.01;42.29
10946;BME280;5525;42.648;23.368;2022-09-03T12:31:06;94791.47;;;26.39;45.91
10946;BME280;5525;42.648;23.368;2022-09-03T12:33:46;94747.16;;;26.39;44.68
10946;BME280;5525;42.648;23.368;2022-09-03T12:36:14;94772.78;;;26.43;45.69
10946;BME280;5525;42.648;23.368;2022-09-03T12:38:41;94777.50;;;26.23;46.28
10946;BME280;5525;42.648;23.368;2022-09-03T12:41:26;94741.50;;;25.74;48.12
10946;BME280;5525;42.648;23.368;2022-09-03T12:43:58;94800.34;;;26.04;49.96
10946;BME280;5525;42.648;23.368;2022-09-03T12:46:30;94783.91;;;25.64;51.17
10946;BME280;5525;42.648;23.368;2022-09-03T12:48:59;94737.47;;;25.52;50.72
10946;BME280;5525;42.648;23.368;2022-09-03T12:51:32;94736.59;;;25.58;50.30
10946;BME280;5525;42.648;23.368;2022-09-03T12:54:02;94715.63;;;25.01;51.59
10946;BME280;5525;42.648;23.368;2022-09-03T12:56:32;94759.13;;;24.97;52.11
10946;BME280;5525;42.648;23.368;2022-09-03T12:59:05;94731.53;;;24.93;51.94
10946;BME280;5525;42.648;23.368;2022-09-03T13:01:41;94749.06;;;25.10;52.92
10946;BME280;5525;42.648;23.368;2022-09-03T13:04:12;94719.97;;;25.02;52.07
10946;BME280;5525;42.648;23.368;2022-09-03T13:06:47;94786.66;;;25.37;51.58
10946;BME280;5525;42.648;23.368;2022-09-03T13:09:19;94711.78;;;24.95;51.42
10946;BME280;5525;42.648;23.368;2022-09-03T13:11:48;94720.50;;;24.89;51.60
10946;BME280;5525;42.648;23.368;2022-09-03T13:14:18;94773.50;;;25.15;50.93
10946;BME280;5525;42.648;23.368;2022-09-03T13:16:56;94770.72;;;25.15;52.32
10946;BME280;5525;42.648;23.368;2022-09-03T13:19:36;94749.63;;;24.98;51.25